createdAt,value
2018-05-18T00:00:57.947Z,76.97
2018-05-18T00:03:24.236Z,76.51
2018-05-18T00:05:50.533Z,75.93
2018-05-18T00:08:16.865Z,76.66
2018-05-18T00:10:43.164Z,76.96
2018-05-18T00:13:09.497Z,76.35
2018-05-18T00:15:35.805Z,75.24
2018-05-18T00:18:02.083Z,74.88
2018-05-18T00:20:28.382Z,74.78
2018-05-18T00:22:54.670Z,74.02
2018-05-18T00:25:21.003Z,73.70
2018-05-18T00:27:47.290Z,73.50
2018-05-18T00:30:13.620Z,74.43
2018-05-18T00:32:39.928Z,73.44
2018-05-18T00:35:06.231Z,74.51
2018-05-18T00:37:32.526Z,74.42
2018-05-18T00:39:58.823Z,73.31
2018-05-18T00:42:25.116Z,73.88
2018-05-18T00:44:51.451Z,73.56
2018-05-18T00:47:17.747Z,73.94
2018-05-18T00:49:44.043Z,73.28
2018-05-18T00:52:10.336Z,72.80
2018-05-18T00:54:36.629Z,71.81
2018-05-18T00:57:02.957Z,71.10
2018-05-18T00:59:29.214Z,71.56
2018-05-18T01:01:55.503Z,72.85
2018-05-18T01:04:21.818Z,72.00
2018-05-18T01:06:48.088Z,72.64
2018-05-18T01:09:14.390Z,73.37
2018-05-18T01:11:40.668Z,73.54
2018-05-18T01:14:06.961Z,73.60
2018-05-18T01:16:33.252Z,72.89
2018-05-18T01:18:59.548Z,73.46
2018-05-18T01:21:25.839Z,73.19
2018-05-18T01:23:52.128Z,73.49
2018-05-18T01:26:18.457Z,74.08
2018-05-18T01:28:44.743Z,75.55
2018-05-18T01:31:11.108Z,76.55
2018-05-18T01:33:37.375Z,77.21
2018-05-18T01:36:03.667Z,77.02
2018-05-18T01:38:29.953Z,77.67
2018-05-18T01:40:56.284Z,77.93
2018-05-18T01:43:22.577Z,78.21
2018-05-18T01:45:48.870Z,78.40
2018-05-18T01:48:15.171Z,78.45
2018-05-18T01:50:41.467Z,78.02
2018-05-18T01:53:07.782Z,78.30
2018-05-18T01:55:34.082Z,78.60
2018-05-18T01:58:00.428Z,78.92
2018-05-18T02:00:26.734Z,79.57
2018-05-18T02:02:53.038Z,80.03
2018-05-18T02:05:19.334Z,78.65
2018-05-18T02:07:45.630Z,78.25
2018-05-18T02:10:11.926Z,78.72
2018-05-18T02:12:38.216Z,79.15
2018-05-18T02:15:04.515Z,79.47
2018-05-18T02:17:30.839Z,79.69
2018-05-18T02:19:57.127Z,79.38
2018-05-18T02:22:23.416Z,78.49
2018-05-18T02:24:49.704Z,78.01
2018-05-18T02:27:16.017Z,77.54
2018-05-18T02:29:42.309Z,78.25
2018-05-18T02:32:08.596Z,78.67
2018-05-18T02:34:34.892Z,78.68
2018-05-18T02:37:01.182Z,77.93
2018-05-18T02:39:27.476Z,76.67
2018-05-18T02:41:53.760Z,77.34
2018-05-18T02:44:20.108Z,78.31
2018-05-18T02:46:46.408Z,79.91
2018-05-18T02:49:12.698Z,80.69
2018-05-18T02:51:38.988Z,79.38
2018-05-18T02:54:05.272Z,79.71
2018-05-18T02:56:31.564Z,80.20
2018-05-18T02:58:57.860Z,80.63
2018-05-18T03:01:24.154Z,80.33
2018-05-18T03:03:50.481Z,80.38
2018-05-18T03:06:16.783Z,80.42
2018-05-18T03:08:43.079Z,80.62
2018-05-18T03:11:09.383Z,80.90
2018-05-18T03:13:35.678Z,81.12
2018-05-18T03:16:02.011Z,80.64
2018-05-18T03:18:28.302Z,79.87
2018-05-18T03:20:54.656Z,79.63
2018-05-18T03:23:20.990Z,79.66
2018-05-18T03:25:47.280Z,79.78
2018-05-18T03:28:13.580Z,80.06
2018-05-18T03:30:39.875Z,80.07
2018-05-18T03:33:06.203Z,79.51
2018-05-18T03:35:32.490Z,78.84
2018-05-18T03:37:58.779Z,78.10
2018-05-18T03:40:25.069Z,77.15
2018-05-18T03:42:51.403Z,77.49
2018-05-18T03:45:17.695Z,76.62
2018-05-18T03:47:44.001Z,75.91
2018-05-18T03:50:10.361Z,75.58
2018-05-18T03:52:36.657Z,76.42
2018-05-18T03:55:02.986Z,76.43
2018-05-18T03:57:29.278Z,76.34
2018-05-18T03:59:55.591Z,76.60
2018-05-18T04:02:21.885Z,77.54
2018-05-18T04:04:48.181Z,77.82
2018-05-18T04:07:14.512Z,76.40
2018-05-18T04:09:40.803Z,77.00
2018-05-18T04:12:07.097Z,76.04
2018-05-18T04:14:33.392Z,75.73
2018-05-18T04:16:59.720Z,76.39
2018-05-18T04:19:26.055Z,75.71
2018-05-18T04:21:52.378Z,75.20
2018-05-18T04:24:18.664Z,75.40
2018-05-18T04:26:44.992Z,76.43
2018-05-18T04:29:11.286Z,77.09
2018-05-18T04:31:37.687Z,75.40
2018-05-18T04:34:03.907Z,74.76
2018-05-18T04:36:30.194Z,73.20
2018-05-18T04:38:56.488Z,72.85
2018-05-18T04:41:22.826Z,72.16
2018-05-18T04:43:49.111Z,73.06
2018-05-18T04:46:15.439Z,72.88
2018-05-18T04:48:41.728Z,71.35
2018-05-18T04:51:08.055Z,70.95
2018-05-18T04:53:34.403Z,68.94
2018-05-18T04:56:00.696Z,66.59
2018-05-18T04:58:27.047Z,65.04
2018-05-18T05:00:53.371Z,63.79
2018-05-18T05:03:19.660Z,66.29
2018-05-18T05:05:45.951Z,66.00
2018-05-18T05:08:12.247Z,66.83
2018-05-18T05:10:38.540Z,65.38
2018-05-18T05:13:04.838Z,67.00
2018-05-18T05:15:31.164Z,64.84
2018-05-18T05:17:57.516Z,57.78
2018-05-18T05:20:23.795Z,56.86
2018-05-18T05:22:50.128Z,55.08
2018-05-18T05:25:16.424Z,59.18
2018-05-18T05:27:42.747Z,55.71
2018-05-18T05:30:09.040Z,52.03
2018-05-18T05:32:35.340Z,50.39
2018-05-18T05:35:01.629Z,50.13
2018-05-18T05:37:27.919Z,48.79
2018-05-18T05:39:54.210Z,50.74
2018-05-18T05:42:20.495Z,48.85
2018-05-18T05:44:46.833Z,47.96
2018-05-18T05:47:13.118Z,47.09
2018-05-18T05:49:39.426Z,45.52
2018-05-18T05:52:05.715Z,49.00
2018-05-18T05:54:32.013Z,50.34
2018-05-18T05:56:58.309Z,49.79
2018-05-18T05:59:24.596Z,48.51
2018-05-18T06:01:50.895Z,46.92
2018-05-18T06:04:17.184Z,46.42
2018-05-18T06:06:43.515Z,47.06
2018-05-18T06:09:09.852Z,47.33
2018-05-18T06:11:36.143Z,45.90
2018-05-18T06:14:02.448Z,45.67
2018-05-18T06:16:28.739Z,46.77
2018-05-18T06:18:55.102Z,47.04
2018-05-18T06:21:21.336Z,48.49
2018-05-18T06:23:47.624Z,47.07
2018-05-18T06:26:13.980Z,47.57
2018-05-18T06:28:40.326Z,47.41
2018-05-18T06:31:06.616Z,46.35
2018-05-18T06:33:32.975Z,45.70
2018-05-18T06:35:59.206Z,47.17
2018-05-18T06:38:25.504Z,45.71
2018-05-18T06:40:51.800Z,46.42
2018-05-18T06:43:18.090Z,45.88
2018-05-18T06:45:44.382Z,44.68
2018-05-18T06:48:10.694Z,45.33
2018-05-18T06:50:36.993Z,44.69
2018-05-18T06:53:03.280Z,45.16
2018-05-18T06:55:29.574Z,45.02
2018-05-18T06:57:55.882Z,44.92
2018-05-18T07:00:22.177Z,43.91
2018-05-18T07:02:48.500Z,44.05
2018-05-18T07:05:14.789Z,44.91
2018-05-18T07:07:41.074Z,44.61
2018-05-18T07:10:07.370Z,42.39
2018-05-18T07:12:33.656Z,42.34
2018-05-18T07:14:59.944Z,44.67
2018-05-18T07:17:26.240Z,46.49
2018-05-18T07:19:52.532Z,43.60
2018-05-18T07:22:18.819Z,43.18
2018-05-18T07:24:45.111Z,44.83
2018-05-18T07:27:11.400Z,43.79
2018-05-18T07:29:37.696Z,43.92
2018-05-18T07:32:03.997Z,44.58
2018-05-18T07:34:30.286Z,45.68
2018-05-18T07:36:56.581Z,45.34
2018-05-18T07:39:22.881Z,44.68
2018-05-18T07:41:49.182Z,44.32
2018-05-18T07:44:15.483Z,43.36
2018-05-18T07:46:41.771Z,43.58
2018-05-18T07:49:08.122Z,44.15
2018-05-18T07:51:34.423Z,44.75
2018-05-18T07:54:00.713Z,44.35
2018-05-18T07:56:27.015Z,45.05
2018-05-18T07:58:53.308Z,44.79
2018-05-18T08:01:19.598Z,44.71
2018-05-18T08:03:45.892Z,45.03
2018-05-18T08:06:12.181Z,44.78
2018-05-18T08:08:38.473Z,43.34
2018-05-18T08:11:04.770Z,42.67
2018-05-18T08:13:31.065Z,43.87
2018-05-18T08:15:57.357Z,43.49
2018-05-18T08:18:23.655Z,42.75
2018-05-18T08:20:49.943Z,42.64
2018-05-18T08:23:16.242Z,42.79
2018-05-18T08:25:42.565Z,43.65
2018-05-18T08:28:08.896Z,44.52
2018-05-18T08:30:35.231Z,43.67
2018-05-18T08:33:01.522Z,42.36
2018-05-18T08:35:27.852Z,42.29
2018-05-18T08:37:54.175Z,41.47
2018-05-18T08:40:20.475Z,41.13
2018-05-18T08:42:46.800Z,41.28
2018-05-18T08:45:13.089Z,41.32
2018-05-18T08:47:39.423Z,41.65
2018-05-18T08:50:05.832Z,41.39
2018-05-18T08:52:32.046Z,41.72
2018-05-18T08:54:58.394Z,42.22
2018-05-18T08:57:24.690Z,41.76
2018-05-18T08:59:50.992Z,41.12
2018-05-18T09:02:17.289Z,40.91
2018-05-18T09:04:43.629Z,41.77
2018-05-18T09:07:09.960Z,41.71
2018-05-18T09:09:36.313Z,40.98
2018-05-18T09:12:02.599Z,41.76
2018-05-18T09:14:28.886Z,41.93
2018-05-18T09:16:55.199Z,39.42
2018-05-18T09:19:21.472Z,37.06
2018-05-18T09:21:47.759Z,33.43
2018-05-18T09:24:14.049Z,31.94
2018-05-18T09:26:40.341Z,31.59
2018-05-18T09:29:06.626Z,32.73
2018-05-18T09:31:32.970Z,32.40
2018-05-18T09:33:59.276Z,33.31
2018-05-18T09:36:25.548Z,34.50
2018-05-18T09:38:51.840Z,34.52
2018-05-18T09:41:18.126Z,33.09
2018-05-18T09:43:44.425Z,32.51
2018-05-18T09:46:10.708Z,32.74
2018-05-18T09:48:37.024Z,32.11
2018-05-18T09:51:03.342Z,32.40
2018-05-18T09:53:29.675Z,32.16
2018-05-18T09:55:55.937Z,32.74
2018-05-18T09:58:22.229Z,30.77
2018-05-18T10:00:48.625Z,31.33
2018-05-18T10:03:14.819Z,31.86
2018-05-18T10:05:41.109Z,32.15
2018-05-18T10:08:07.398Z,31.52
2018-05-18T10:10:33.687Z,32.37
2018-05-18T10:12:59.987Z,32.36
2018-05-18T10:15:26.297Z,32.00
2018-05-18T10:17:52.620Z,32.25
2018-05-18T10:20:18.880Z,31.89
2018-05-18T10:22:45.174Z,33.27
2018-05-18T10:25:11.468Z,33.22
2018-05-18T10:27:37.761Z,35.67
2018-05-18T10:30:04.050Z,34.12
2018-05-18T10:32:30.350Z,35.82
2018-05-18T10:34:56.649Z,36.04
2018-05-18T10:37:22.942Z,36.72
2018-05-18T10:39:49.281Z,35.01
2018-05-18T10:42:15.574Z,33.84
2018-05-18T10:44:41.879Z,33.95
2018-05-18T10:47:08.173Z,33.63
2018-05-18T10:49:34.463Z,32.74
2018-05-18T10:52:00.761Z,32.75
2018-05-18T10:54:27.103Z,33.50
2018-05-18T10:56:53.390Z,32.75
2018-05-18T10:59:19.716Z,32.17
2018-05-18T11:01:45.968Z,32.84
2018-05-18T11:04:12.255Z,33.55
2018-05-18T11:06:38.555Z,34.27
2018-05-18T11:09:04.843Z,33.62
2018-05-18T11:11:31.135Z,35.42
2018-05-18T11:13:57.504Z,33.56
2018-05-18T11:16:23.780Z,32.29
2018-05-18T11:18:50.071Z,32.50
2018-05-18T11:21:16.371Z,33.65
2018-05-18T11:23:42.666Z,34.01
2018-05-18T11:26:08.953Z,34.41
2018-05-18T11:28:35.258Z,33.44
2018-05-18T11:31:01.570Z,33.36
2018-05-18T11:33:27.860Z,33.13
2018-05-18T11:35:54.159Z,31.84
2018-05-18T11:38:20.465Z,32.24
2018-05-18T11:40:46.757Z,31.57
2018-05-18T11:43:13.053Z,31.33
2018-05-18T11:45:39.347Z,30.74
2018-05-18T11:48:05.640Z,32.49
2018-05-18T11:50:31.939Z,33.99
2018-05-18T11:52:58.269Z,35.19
2018-05-18T11:55:24.562Z,36.57
2018-05-18T11:57:50.853Z,36.91
2018-05-18T12:00:19.241Z,37.34
2018-05-18T12:02:43.474Z,37.35
2018-05-18T12:05:09.817Z,37.49
2018-05-18T12:07:36.104Z,37.49
2018-05-18T12:10:02.401Z,36.60
2018-05-18T12:12:28.755Z,35.38
2018-05-18T12:14:55.043Z,34.71
2018-05-18T12:17:21.343Z,35.26
2018-05-18T12:19:47.639Z,34.17
2018-05-18T12:22:13.951Z,34.42
2018-05-18T12:24:40.257Z,35.98
2018-05-18T12:27:06.546Z,36.46
2018-05-18T12:29:32.833Z,35.99
2018-05-18T12:31:59.124Z,36.01
2018-05-18T12:34:25.431Z,35.11
2018-05-18T12:36:51.721Z,35.06
2018-05-18T12:39:18.015Z,35.23
2018-05-18T12:41:44.321Z,34.75
2018-05-18T12:44:10.613Z,35.15
2018-05-18T12:46:36.904Z,35.16
2018-05-18T12:49:03.199Z,35.47
2018-05-18T12:51:29.487Z,35.11
2018-05-18T12:53:55.852Z,34.40
2018-05-18T12:56:22.139Z,32.13
2018-05-18T12:58:48.469Z,30.35
2018-05-18T13:01:14.874Z,31.05
2018-05-18T13:03:41.165Z,32.29
2018-05-18T13:06:07.453Z,32.57
2018-05-18T13:08:33.744Z,33.57
2018-05-18T13:11:00.027Z,34.05
2018-05-18T13:13:26.319Z,33.42
2018-05-18T13:15:52.669Z,33.74
2018-05-18T13:18:18.907Z,32.54
2018-05-18T13:20:45.200Z,32.91
2018-05-18T13:23:11.497Z,34.01
2018-05-18T13:25:37.827Z,35.59
2018-05-18T13:28:04.160Z,37.17
2018-05-18T13:30:30.525Z,37.93
2018-05-18T13:32:56.764Z,38.55
2018-05-18T13:35:23.060Z,37.66
2018-05-18T13:37:49.397Z,37.63
2018-05-18T13:40:15.689Z,37.09
2018-05-18T13:42:42.019Z,38.13
2018-05-18T13:45:08.355Z,37.34
2018-05-18T13:47:34.566Z,37.76
2018-05-18T13:50:00.928Z,37.66
2018-05-18T13:52:27.216Z,38.26
2018-05-18T13:54:53.550Z,38.10
2018-05-18T13:57:19.893Z,37.70
2018-05-18T13:59:46.179Z,38.19
2018-05-18T14:02:12.469Z,37.91
2018-05-18T14:04:38.806Z,37.81
2018-05-18T14:07:05.097Z,37.64
2018-05-18T14:09:31.393Z,36.83
2018-05-18T14:11:57.813Z,37.13
2018-05-18T14:14:24.149Z,37.84
2018-05-18T14:16:50.469Z,37.24
2018-05-18T14:19:16.817Z,37.17
2018-05-18T14:21:43.156Z,37.07
2018-05-18T14:24:09.490Z,38.00
2018-05-18T14:26:35.783Z,37.72
2018-05-18T14:29:02.079Z,38.03
2018-05-18T14:31:28.411Z,38.13
2018-05-18T14:33:54.712Z,37.90
2018-05-18T14:36:20.999Z,37.68
2018-05-18T14:38:47.296Z,37.95
2018-05-18T14:41:13.594Z,37.56
2018-05-18T14:43:39.885Z,37.84
2018-05-18T14:46:06.185Z,37.68
2018-05-18T14:48:32.490Z,37.14
2018-05-18T14:50:58.784Z,37.80
2018-05-18T14:53:25.079Z,38.30
2018-05-18T14:55:51.387Z,37.95
2018-05-18T14:58:17.680Z,37.72
2018-05-18T15:00:43.975Z,37.91
2018-05-18T15:03:10.263Z,37.90
2018-05-18T15:05:36.590Z,37.84
2018-05-18T15:08:02.840Z,37.93
2018-05-18T15:10:29.127Z,38.26
2018-05-18T15:12:55.424Z,38.10
2018-05-18T15:15:21.721Z,37.80
2018-05-18T15:17:48.015Z,38.28
2018-05-18T15:20:14.313Z,38.58
2018-05-18T15:22:40.615Z,38.12
2018-05-18T15:25:06.910Z,39.00
2018-05-18T15:27:33.208Z,38.90
2018-05-18T15:29:59.502Z,38.96
2018-05-18T15:32:25.820Z,38.50
2018-05-18T15:34:52.119Z,38.31
2018-05-18T15:37:18.465Z,38.68
2018-05-18T15:39:44.711Z,38.71
2018-05-18T15:42:11.007Z,38.92
2018-05-18T15:44:37.293Z,38.56
2018-05-18T15:47:03.584Z,38.29
2018-05-18T15:49:29.876Z,38.44
2018-05-18T15:51:56.182Z,38.63
2018-05-18T15:54:22.470Z,39.43
2018-05-18T15:56:48.795Z,39.73
2018-05-18T15:59:15.071Z,40.75
2018-05-18T16:01:41.369Z,39.33
2018-05-18T16:04:07.659Z,38.96
2018-05-18T16:06:33.965Z,41.60
2018-05-18T16:09:00.271Z,45.47
2018-05-18T16:11:26.565Z,47.97
2018-05-18T16:13:52.864Z,49.06
2018-05-18T16:16:19.149Z,50.78
2018-05-18T16:18:45.439Z,50.53
2018-05-18T16:21:11.727Z,48.56
2018-05-18T16:23:38.016Z,50.91
2018-05-18T16:26:04.303Z,51.29
2018-05-18T16:28:30.591Z,48.11
2018-05-18T16:30:56.880Z,46.34
2018-05-18T16:33:23.214Z,46.18
2018-05-18T16:35:49.458Z,45.90
2018-05-18T16:38:15.754Z,46.05
2018-05-18T16:40:42.051Z,46.10
2018-05-18T16:43:08.354Z,46.40
2018-05-18T16:45:34.686Z,46.85
2018-05-18T16:48:00.935Z,45.57
2018-05-18T16:50:27.289Z,45.69
2018-05-18T16:52:53.603Z,45.34
2018-05-18T16:55:19.886Z,45.88
2018-05-18T16:57:46.184Z,46.17
2018-05-18T17:00:12.510Z,45.82
2018-05-18T17:02:38.807Z,46.07
2018-05-18T17:05:05.102Z,46.54
2018-05-18T17:07:31.428Z,47.20
2018-05-18T17:09:57.717Z,47.32
2018-05-18T17:12:24.034Z,47.89
2018-05-18T17:14:50.299Z,48.15
2018-05-18T17:17:16.629Z,48.73
2018-05-18T17:19:42.968Z,48.64
2018-05-18T17:22:09.217Z,48.90
2018-05-18T17:24:35.513Z,48.56
2018-05-18T17:27:01.799Z,48.76
2018-05-18T17:29:28.094Z,49.13
2018-05-18T17:31:54.379Z,48.91
2018-05-18T17:34:20.668Z,48.98
2018-05-18T17:36:46.961Z,49.01
2018-05-18T17:39:13.256Z,49.36
2018-05-18T17:41:39.550Z,49.16
2018-05-18T17:44:05.845Z,49.30
2018-05-18T17:46:32.140Z,48.82
2018-05-18T17:48:58.477Z,49.41
2018-05-18T17:51:24.723Z,48.76
2018-05-18T17:53:51.011Z,48.67
2018-05-18T17:56:17.299Z,48.72
2018-05-18T17:58:43.591Z,48.54
2018-05-18T18:01:09.880Z,48.65
2018-05-18T18:03:36.176Z,48.46
2018-05-18T18:06:02.463Z,48.56
2018-05-18T18:08:28.761Z,52.93
2018-05-18T18:10:55.048Z,55.35
2018-05-18T18:13:21.335Z,57.18
2018-05-18T18:15:47.679Z,56.65
2018-05-18T18:18:13.965Z,56.18
2018-05-18T18:20:40.313Z,55.69
2018-05-18T18:23:06.609Z,55.93
2018-05-18T18:25:32.902Z,56.22
2018-05-18T18:27:59.193Z,56.57
2018-05-18T18:30:25.486Z,57.11
2018-05-18T18:32:51.781Z,56.85
2018-05-18T18:35:18.080Z,56.00
2018-05-18T18:37:44.412Z,55.43
2018-05-18T18:40:10.701Z,55.00
2018-05-18T18:42:37.002Z,54.73
2018-05-18T18:45:03.343Z,54.46
2018-05-18T18:47:29.639Z,54.29
2018-05-18T18:49:55.970Z,54.14
2018-05-18T18:52:22.266Z,54.60
2018-05-18T18:54:48.609Z,54.51
2018-05-18T18:57:14.907Z,54.81
2018-05-18T18:59:41.208Z,54.25
2018-05-18T19:02:07.493Z,53.79
2018-05-18T19:04:33.784Z,54.54
2018-05-18T19:07:00.084Z,54.99
2018-05-18T19:09:26.373Z,55.24
2018-05-18T19:11:52.738Z,56.07
2018-05-18T19:14:19.032Z,55.72
2018-05-18T19:16:45.325Z,56.35
2018-05-18T19:19:11.621Z,56.09
2018-05-18T19:21:37.909Z,56.11
2018-05-18T19:24:04.240Z,56.33
2018-05-18T19:26:30.527Z,56.64
2018-05-18T19:28:56.811Z,56.83
2018-05-18T19:31:23.119Z,57.25
2018-05-18T19:33:49.393Z,56.70
2018-05-18T19:36:15.688Z,56.33
2018-05-18T19:38:41.981Z,53.56
2018-05-18T19:41:08.269Z,49.95
2018-05-18T19:43:34.562Z,47.69
2018-05-18T19:46:00.892Z,45.27
2018-05-18T19:48:27.175Z,44.94
2018-05-18T19:50:53.469Z,44.50
2018-05-18T19:53:19.761Z,44.74
2018-05-18T19:55:46.088Z,44.80
2018-05-18T19:58:12.387Z,44.93
2018-05-18T20:00:38.678Z,44.97
2018-05-18T20:03:04.976Z,44.94
2018-05-18T20:05:31.272Z,45.33
2018-05-18T20:07:57.565Z,44.75
2018-05-18T20:10:23.859Z,45.04
2018-05-18T20:12:50.156Z,45.30
2018-05-18T20:15:16.443Z,44.70
2018-05-18T20:17:42.732Z,44.95
2018-05-18T20:20:09.036Z,45.16
2018-05-18T20:22:35.323Z,45.51
2018-05-18T20:25:01.620Z,45.69
2018-05-18T20:27:27.949Z,46.12
2018-05-18T20:29:54.247Z,46.12
2018-05-18T20:32:20.545Z,46.03
2018-05-18T20:34:46.837Z,46.42
2018-05-18T20:37:13.133Z,46.56
2018-05-18T20:39:39.435Z,47.00
2018-05-18T20:42:05.723Z,47.61
2018-05-18T20:44:32.023Z,48.05
2018-05-18T20:46:58.306Z,48.55
2018-05-18T20:49:24.601Z,48.10
2018-05-18T20:51:50.936Z,48.52
2018-05-18T20:54:17.232Z,48.22
2018-05-18T20:56:43.529Z,48.13
2018-05-18T20:59:09.864Z,48.56
2018-05-18T21:01:36.153Z,49.06
2018-05-18T21:04:02.492Z,50.09
2018-05-18T21:06:28.782Z,48.46
2018-05-18T21:08:55.072Z,48.74
2018-05-18T21:11:21.422Z,48.64
2018-05-18T21:13:47.712Z,48.95
2018-05-18T21:16:14.007Z,50.03
2018-05-18T21:18:40.301Z,48.39
2018-05-18T21:21:06.587Z,48.36
2018-05-18T21:23:32.888Z,47.95
2018-05-18T21:25:59.179Z,48.05
2018-05-18T21:28:25.468Z,47.99
2018-05-18T21:30:51.761Z,48.56
2018-05-18T21:33:18.050Z,48.70
2018-05-18T21:35:44.388Z,48.93
2018-05-18T21:38:10.686Z,48.72
2018-05-18T21:40:36.982Z,48.81
2018-05-18T21:43:03.272Z,49.19
2018-05-18T21:45:29.576Z,49.08
2018-05-18T21:47:55.869Z,49.62
2018-05-18T21:50:22.163Z,49.72
2018-05-18T21:52:48.457Z,50.06
2018-05-18T21:55:14.749Z,50.86
2018-05-18T21:57:41.047Z,50.90
2018-05-18T22:00:07.340Z,52.33
2018-05-18T22:02:33.679Z,52.53
2018-05-18T22:05:00.016Z,52.96
2018-05-18T22:07:26.318Z,52.80
2018-05-18T22:09:52.610Z,53.34
2018-05-18T22:12:18.906Z,52.96
2018-05-18T22:14:45.201Z,53.59
2018-05-18T22:17:11.499Z,53.04
2018-05-18T22:19:37.795Z,52.65
2018-05-18T22:22:04.084Z,53.17
2018-05-18T22:24:30.383Z,52.92
2018-05-18T22:26:56.678Z,52.92
2018-05-18T22:29:22.975Z,52.62
2018-05-18T22:31:49.265Z,52.99
2018-05-18T22:34:15.553Z,52.18
2018-05-18T22:36:41.854Z,51.82
2018-05-18T22:39:08.144Z,52.08
2018-05-18T22:41:34.440Z,52.44
2018-05-18T22:44:00.731Z,52.02
2018-05-18T22:46:27.023Z,51.57
2018-05-18T22:48:53.319Z,51.49
2018-05-18T22:51:19.613Z,52.39
2018-05-18T22:53:45.903Z,52.33
2018-05-18T22:56:12.191Z,52.95
2018-05-18T22:58:38.485Z,54.06
2018-05-18T23:01:04.771Z,55.04
2018-05-18T23:03:31.065Z,55.71
2018-05-18T23:05:57.351Z,58.36
2018-05-18T23:08:23.678Z,57.68
2018-05-18T23:10:49.964Z,59.29
2018-05-18T23:13:16.298Z,60.42
2018-05-18T23:15:42.593Z,61.02
2018-05-18T23:18:08.885Z,60.35
2018-05-18T23:20:35.175Z,61.45
2018-05-18T23:23:01.503Z,61.20
2018-05-18T23:25:27.855Z,62.03
2018-05-18T23:27:54.143Z,62.46
2018-05-18T23:30:20.439Z,62.82
2018-05-18T23:32:46.770Z,62.64
2018-05-18T23:35:13.067Z,62.03
2018-05-18T23:37:39.355Z,61.82
2018-05-18T23:40:05.654Z,60.93
2018-05-18T23:42:31.945Z,60.68
2018-05-18T23:44:58.273Z,60.92
2018-05-18T23:47:24.575Z,61.05
2018-05-18T23:49:50.865Z,61.41
2018-05-18T23:52:17.165Z,61.94
2018-05-18T23:54:43.453Z,61.12
2018-05-18T23:57:09.750Z,61.09
2018-05-18T23:59:36.046Z,61.55
